createdAt,value
2019-01-21T00:00:35.928Z,72.02
2019-01-21T00:03:03.597Z,71.98
2019-01-21T00:05:30.960Z,72.02
2019-01-21T00:07:59.184Z,72.00
2019-01-21T00:10:27.274Z,71.74
2019-01-21T00:12:54.392Z,71.63
2019-01-21T00:15:23.405Z,71.86
2019-01-21T00:17:51.705Z,71.81
2019-01-21T00:20:19.925Z,71.75
2019-01-21T00:22:47.280Z,71.61
2019-01-21T00:25:14.585Z,71.53
2019-01-21T00:27:43.644Z,71.46
2019-01-21T00:30:11.074Z,71.53
2019-01-21T00:32:38.456Z,71.70
2019-01-21T00:35:06.055Z,71.95
2019-01-21T00:37:35.022Z,72.01
2019-01-21T00:40:04.031Z,72.09
2019-01-21T00:42:31.324Z,71.97
2019-01-21T00:44:58.559Z,71.84
2019-01-21T00:47:29.814Z,71.70
2019-01-21T00:49:55.027Z,71.55
2019-01-21T00:52:22.259Z,71.43
2019-01-21T00:54:51.409Z,71.45
2019-01-21T00:57:18.742Z,71.56
2019-01-21T00:59:45.852Z,71.70
2019-01-21T01:02:13.141Z,71.84
2019-01-21T01:04:41.365Z,71.95
2019-01-21T01:07:08.739Z,72.07
2019-01-21T01:09:35.855Z,72.17
2019-01-21T01:12:04.989Z,72.24
2019-01-21T01:14:32.135Z,72.30
2019-01-21T01:17:01.297Z,72.35
2019-01-21T01:19:28.612Z,72.38
2019-01-21T01:21:55.909Z,72.44
2019-01-21T01:24:24.108Z,72.47
2019-01-21T01:26:51.224Z,72.41
2019-01-21T01:29:18.533Z,72.41
2019-01-21T01:31:45.820Z,72.25
2019-01-21T01:34:13.174Z,72.16
2019-01-21T01:36:40.527Z,72.14
2019-01-21T01:39:10.696Z,72.23
2019-01-21T01:41:37.818Z,72.34
2019-01-21T01:44:05.368Z,72.45
2019-01-21T01:46:32.675Z,72.45
2019-01-21T01:49:00.193Z,72.71
2019-01-21T01:51:28.463Z,72.74
2019-01-21T01:53:55.800Z,72.83
2019-01-21T01:56:24.723Z,72.85
2019-01-21T01:58:52.458Z,72.69
2019-01-21T02:01:19.729Z,72.59
2019-01-21T02:03:47.077Z,72.54
2019-01-21T02:06:14.551Z,72.43
2019-01-21T02:08:41.853Z,72.33
2019-01-21T02:11:09.251Z,72.27
2019-01-21T02:13:38.432Z,72.27
2019-01-21T02:16:07.463Z,72.41
2019-01-21T02:18:36.632Z,72.42
2019-01-21T02:21:05.093Z,72.44
2019-01-21T02:23:35.714Z,72.42
2019-01-21T02:26:10.366Z,72.50
2019-01-21T02:29:01.372Z,72.49
2019-01-21T02:32:10.535Z,72.52
2019-01-21T02:34:52.619Z,72.34
2019-01-21T02:38:01.023Z,72.29
2019-01-21T02:40:50.354Z,72.12
2019-01-21T02:43:46.772Z,72.07
2019-01-21T02:47:00.838Z,72.04
2019-01-21T02:50:06.871Z,71.99
2019-01-21T02:53:24.585Z,72.15
2019-01-21T02:56:15.378Z,72.18
2019-01-21T02:59:13.722Z,72.53
2019-01-21T03:02:33.183Z,72.65
2019-01-21T03:05:42.248Z,72.61
2019-01-21T03:09:03.955Z,72.31
2019-01-21T03:12:04.743Z,72.15
2019-01-21T03:15:35.237Z,72.15
2019-01-21T03:18:45.249Z,72.07
2019-01-21T03:21:37.028Z,72.00
2019-01-21T03:24:38.926Z,72.07
2019-01-21T03:27:50.625Z,71.98
2019-01-21T03:30:58.977Z,71.92
2019-01-21T03:33:58.097Z,71.95
2019-01-21T03:37:28.293Z,72.02
2019-01-21T03:40:42.340Z,72.13
2019-01-21T03:43:56.035Z,71.92
2019-01-21T03:47:14.055Z,72.12
2019-01-21T03:49:55.208Z,71.96
2019-01-21T03:52:40.934Z,71.88
2019-01-21T03:55:13.029Z,71.76
2019-01-21T03:58:32.905Z,71.83
2019-01-21T04:01:44.018Z,71.83
2019-01-21T04:04:53.741Z,71.89
2019-01-21T04:07:52.665Z,71.89
2019-01-21T04:11:03.215Z,72.01
2019-01-21T04:14:22.228Z,72.11
2019-01-21T04:17:14.537Z,72.11
2019-01-21T04:20:14.252Z,72.14
2019-01-21T04:23:21.768Z,72.40
2019-01-21T04:26:42.804Z,72.40
2019-01-21T04:30:03.855Z,72.25
2019-01-21T04:32:57.802Z,72.36
2019-01-21T04:36:09.366Z,72.36
2019-01-21T04:39:11.454Z,72.10
2019-01-21T04:42:10.669Z,71.98
2019-01-21T04:45:33.607Z,71.93
2019-01-21T04:48:33.080Z,71.93
2019-01-21T04:51:22.400Z,71.78
2019-01-21T04:54:14.223Z,71.78
2019-01-21T04:57:25.145Z,71.72
2019-01-21T05:00:07.310Z,71.86
2019-01-21T05:03:19.278Z,72.07
2019-01-21T05:05:58.654Z,72.07
2019-01-21T05:09:04.878Z,72.06
2019-01-21T05:12:25.893Z,71.68
2019-01-21T05:15:35.655Z,71.68
2019-01-21T05:18:15.882Z,71.66
2019-01-21T05:21:26.588Z,71.66
2019-01-21T05:24:45.449Z,71.90
2019-01-21T05:28:02.210Z,72.24
2019-01-21T05:31:32.330Z,72.62
2019-01-21T05:34:41.352Z,72.82
2019-01-21T05:37:26.289Z,72.82
2019-01-21T05:40:32.670Z,72.47
2019-01-21T05:43:36.612Z,72.47
2019-01-21T05:46:25.291Z,72.58
2019-01-21T05:49:22.932Z,72.32
2019-01-21T05:52:09.250Z,72.12
2019-01-21T05:55:10.738Z,72.12
2019-01-21T05:58:28.576Z,72.27
2019-01-21T06:01:37.239Z,72.41
2019-01-21T06:04:38.063Z,72.62
2019-01-21T06:07:30.983Z,72.62
2019-01-21T06:10:13.105Z,72.61
2019-01-21T06:13:16.097Z,72.64
2019-01-21T06:16:20.963Z,72.54
2019-01-21T06:19:28.528Z,72.54
2019-01-21T06:22:25.142Z,72.48
2019-01-21T06:25:19.711Z,72.23
2019-01-21T06:28:24.299Z,72.32
2019-01-21T06:31:41.349Z,72.27
2019-01-21T06:34:46.352Z,72.23
2019-01-21T06:37:59.198Z,72.21
2019-01-21T06:41:25.092Z,72.05
2019-01-21T06:44:52.478Z,72.25
2019-01-21T06:48:08.329Z,72.49
2019-01-21T06:51:06.934Z,72.49
2019-01-21T06:54:19.544Z,72.56
2019-01-21T06:57:16.681Z,72.58
2019-01-21T07:00:12.901Z,72.49
2019-01-21T07:03:32.450Z,72.49
2019-01-21T07:06:32.202Z,72.31
2019-01-21T07:09:21.624Z,72.22
2019-01-21T07:12:32.525Z,71.47
2019-01-21T07:15:36.951Z,71.90
2019-01-21T07:18:40.680Z,71.90
2019-01-21T07:21:46.082Z,72.32
2019-01-21T07:24:54.764Z,72.60
2019-01-21T07:28:00.195Z,72.60
2019-01-21T07:31:12.213Z,72.63
2019-01-21T07:34:22.904Z,72.32
2019-01-21T07:37:23.064Z,72.32
2019-01-21T07:40:34.953Z,72.73
2019-01-21T07:43:22.568Z,72.71
2019-01-21T07:46:29.009Z,72.63
2019-01-21T07:49:21.077Z,72.63
2019-01-21T07:52:21.518Z,72.59
2019-01-21T07:55:25.328Z,72.43
2019-01-21T07:58:31.945Z,72.26
2019-01-21T08:01:21.613Z,72.23
2019-01-21T08:04:35.663Z,72.25
2019-01-21T08:07:30.401Z,72.40
2019-01-21T08:10:35.382Z,72.29
2019-01-21T08:13:34.959Z,72.21
2019-01-21T08:16:42.857Z,71.91
2019-01-21T08:19:35.204Z,71.91
2019-01-21T08:22:51.546Z,72.04
2019-01-21T08:25:46.953Z,71.56
2019-01-21T08:28:53.313Z,71.46
2019-01-21T08:31:47.054Z,71.46
2019-01-21T08:34:45.530Z,71.78
2019-01-21T08:37:43.908Z,72.04
2019-01-21T08:40:53.314Z,72.97
2019-01-21T08:43:45.589Z,73.14
2019-01-21T08:46:47.854Z,72.79
2019-01-21T08:49:58.847Z,72.79
2019-01-21T08:53:03.571Z,72.79
2019-01-21T08:56:12.076Z,72.42
2019-01-21T08:59:03.551Z,72.43
2019-01-21T09:02:08.332Z,72.56
2019-01-21T09:05:02.187Z,72.56
2019-01-21T09:08:20.252Z,72.42
2019-01-21T09:11:19.994Z,72.22
2019-01-21T09:14:16.018Z,72.02
2019-01-21T09:17:00.532Z,72.02
2019-01-21T09:20:13.768Z,72.15
2019-01-21T09:23:24.606Z,72.15
2019-01-21T09:26:39.341Z,72.21
2019-01-21T09:29:46.947Z,72.16
2019-01-21T09:33:01.958Z,72.10
2019-01-21T09:36:13.492Z,72.08
2019-01-21T09:39:39.648Z,72.03
2019-01-21T09:42:34.578Z,72.02
2019-01-21T09:45:28.664Z,72.06
2019-01-21T09:47:54.706Z,72.05
2019-01-21T09:50:23.611Z,72.09
2019-01-21T09:52:52.006Z,72.15
2019-01-21T09:55:21.909Z,72.17
2019-01-21T09:57:55.368Z,72.18
2019-01-21T10:00:22.590Z,72.25
2019-01-21T10:02:53.592Z,72.29
2019-01-21T10:05:23.930Z,72.35
2019-01-21T10:08:28.792Z,72.37
2019-01-21T10:11:26.084Z,72.41
2019-01-21T10:14:29.035Z,72.34
2019-01-21T10:17:37.428Z,72.22
2019-01-21T10:20:32.344Z,72.23
2019-01-21T10:23:32.505Z,72.26
2019-01-21T10:27:02.810Z,72.23
2019-01-21T10:29:47.388Z,72.18
2019-01-21T10:33:04.415Z,72.10
2019-01-21T10:36:12.571Z,72.07
2019-01-21T10:39:20.069Z,72.09
2019-01-21T10:42:29.195Z,72.08
2019-01-21T10:45:32.137Z,72.30
2019-01-21T10:48:17.917Z,71.90
2019-01-21T10:51:21.080Z,71.90
2019-01-21T10:53:57.859Z,71.88
2019-01-21T10:56:58.868Z,71.96
2019-01-21T11:00:17.693Z,71.90
2019-01-21T11:03:41.836Z,71.95
2019-01-21T11:06:48.426Z,71.95
2019-01-21T11:09:26.812Z,71.95
2019-01-21T11:12:40.723Z,72.10
2019-01-21T11:15:49.663Z,72.11
2019-01-21T11:18:30.309Z,72.08
2019-01-21T11:21:42.209Z,72.07
2019-01-21T11:24:37.821Z,72.07
2019-01-21T11:27:32.273Z,72.19
2019-01-21T11:30:26.477Z,72.20
2019-01-21T11:33:31.576Z,72.27
2019-01-21T11:36:21.318Z,72.23
2019-01-21T11:39:32.554Z,72.19
2019-01-21T11:42:26.496Z,72.18
2019-01-21T11:45:26.619Z,72.18
2019-01-21T11:48:32.906Z,72.23
2019-01-21T11:51:51.816Z,72.31
2019-01-21T11:54:59.465Z,72.27
2019-01-21T11:57:49.403Z,72.13
2019-01-21T12:00:31.349Z,72.06
2019-01-21T12:03:23.639Z,72.09
2019-01-21T12:06:16.508Z,72.15
2019-01-21T12:09:25.320Z,72.28
2019-01-21T12:12:19.424Z,72.29
2019-01-21T12:15:30.176Z,72.24
2019-01-21T12:18:35.224Z,72.15
2019-01-21T12:21:56.221Z,72.12
2019-01-21T12:24:37.103Z,72.18
2019-01-21T12:27:54.401Z,72.22
2019-01-21T12:31:18.401Z,72.16
2019-01-21T12:33:57.379Z,72.18
2019-01-21T12:36:57.622Z,72.10
2019-01-21T12:39:54.026Z,72.16
2019-01-21T12:42:55.284Z,72.17
2019-01-21T12:45:54.422Z,72.15
2019-01-21T12:49:06.570Z,72.17
2019-01-21T12:52:13.768Z,72.15
2019-01-21T12:55:08.973Z,72.24
2019-01-21T12:57:50.656Z,72.21
2019-01-21T13:00:50.890Z,72.19
2019-01-21T13:03:43.943Z,72.19
2019-01-21T13:06:48.580Z,72.20
2019-01-21T13:09:49.928Z,72.26
2019-01-21T13:12:57.381Z,72.23
2019-01-21T13:16:05.464Z,72.31
2019-01-21T13:18:53.689Z,72.34
2019-01-21T13:21:57.199Z,72.29
2019-01-21T13:24:48.071Z,72.39
2019-01-21T13:28:06.108Z,72.40
2019-01-21T13:31:24.357Z,72.27
2019-01-21T13:34:39.132Z,72.29
2019-01-21T13:37:43.688Z,72.32
2019-01-21T13:41:03.107Z,72.31
2019-01-21T13:43:59.707Z,72.26
2019-01-21T13:47:02.580Z,72.19
2019-01-21T13:49:51.760Z,72.27
2019-01-21T13:53:11.542Z,72.23
2019-01-21T13:55:48.818Z,72.23
2019-01-21T13:58:24.617Z,72.23
2019-01-21T14:01:31.366Z,72.29
2019-01-21T14:04:26.472Z,72.30
2019-01-21T14:07:31.082Z,72.40
2019-01-21T14:10:38.178Z,72.39
2019-01-21T14:13:46.960Z,72.44
2019-01-21T14:17:04.728Z,72.49
2019-01-21T14:19:41.366Z,72.45
2019-01-21T14:22:56.462Z,72.48
2019-01-21T14:26:25.429Z,72.48
2019-01-21T14:29:27.873Z,72.47
2019-01-21T14:32:23.491Z,72.48
2019-01-21T14:35:38.464Z,72.48
2019-01-21T14:38:34.192Z,72.48
2019-01-21T14:41:43.282Z,72.44
2019-01-21T14:44:47.013Z,72.35
2019-01-21T14:48:25.611Z,72.41
2019-01-21T14:51:31.029Z,72.41
2019-01-21T14:54:41.446Z,72.37
2019-01-21T14:57:59.748Z,72.38
2019-01-21T15:00:50.036Z,72.44
2019-01-21T15:04:00.708Z,72.42
2019-01-21T15:07:06.666Z,72.56
2019-01-21T15:10:14.667Z,72.50
2019-01-21T15:13:36.086Z,72.55
2019-01-21T15:16:21.978Z,72.52
2019-01-21T15:19:19.421Z,72.58
2019-01-21T15:22:03.775Z,72.59
2019-01-21T15:25:06.901Z,72.58
2019-01-21T15:28:10.580Z,72.56
2019-01-21T15:31:14.372Z,72.47
2019-01-21T15:34:13.940Z,72.47
2019-01-21T15:37:12.648Z,72.52
2019-01-21T15:40:08.798Z,72.45
2019-01-21T15:43:33.104Z,72.43
2019-01-21T15:46:26.713Z,72.45
2019-01-21T15:49:06.397Z,72.54
2019-01-21T15:52:03.284Z,72.58
2019-01-21T15:55:06.074Z,72.62
2019-01-21T15:58:27.198Z,72.55
2019-01-21T16:01:29.152Z,72.52
2019-01-21T16:04:31.243Z,72.58
2019-01-21T16:07:24.032Z,72.57
2019-01-21T16:10:44.194Z,72.51
2019-01-21T16:13:59.092Z,72.49
2019-01-21T16:16:49.026Z,72.56
2019-01-21T16:19:32.771Z,72.56
2019-01-21T16:22:36.957Z,72.50
2019-01-21T16:25:24.413Z,72.55
2019-01-21T16:28:27.499Z,72.87
2019-01-21T16:31:17.179Z,72.58
2019-01-21T16:34:24.729Z,72.57
2019-01-21T16:37:13.541Z,72.57
2019-01-21T16:40:27.806Z,72.64
2019-01-21T16:42:55.024Z,72.70
2019-01-21T16:45:22.242Z,72.71
2019-01-21T16:47:49.388Z,72.83
2019-01-21T16:50:16.489Z,72.95
2019-01-21T16:52:43.633Z,72.95
2019-01-21T16:55:10.752Z,72.91
2019-01-21T16:57:37.919Z,72.91
2019-01-21T17:00:05.581Z,72.84
2019-01-21T17:02:32.682Z,72.84
2019-01-21T17:04:59.975Z,72.91
2019-01-21T17:07:27.077Z,72.99
2019-01-21T17:09:54.320Z,73.05
2019-01-21T17:12:22.849Z,73.04
2019-01-21T17:14:57.366Z,72.99
2019-01-21T17:17:21.041Z,72.95
2019-01-21T17:19:48.182Z,72.91
2019-01-21T17:22:15.286Z,72.93
2019-01-21T17:24:42.401Z,72.95
2019-01-21T17:27:09.512Z,72.89
2019-01-21T17:29:36.622Z,72.89
2019-01-21T17:32:03.827Z,72.97
2019-01-21T17:34:30.941Z,72.98
2019-01-21T17:36:58.051Z,72.99
2019-01-21T17:39:26.967Z,72.97
2019-01-21T17:41:54.144Z,72.92
2019-01-21T17:44:21.264Z,72.97
2019-01-21T17:46:48.389Z,73.01
2019-01-21T17:49:15.497Z,73.02
2019-01-21T17:51:42.632Z,73.01
2019-01-21T17:54:09.836Z,73.07
2019-01-21T17:56:36.934Z,73.11
2019-01-21T17:59:04.459Z,73.12
2019-01-21T18:01:31.571Z,73.04
2019-01-21T18:03:58.684Z,73.07
2019-01-21T18:06:25.796Z,73.11
2019-01-21T18:08:52.911Z,73.08
2019-01-21T18:11:20.058Z,73.15
2019-01-21T18:13:47.172Z,73.18
2019-01-21T18:16:14.279Z,73.20
2019-01-21T18:18:41.380Z,73.23
2019-01-21T18:21:08.548Z,73.21
2019-01-21T18:23:35.657Z,73.12
2019-01-21T18:26:02.763Z,73.14
2019-01-21T18:28:31.264Z,73.06
2019-01-21T18:30:58.684Z,73.09
2019-01-21T18:33:26.019Z,73.11
2019-01-21T18:35:53.644Z,73.13
2019-01-21T18:38:22.720Z,73.16
2019-01-21T18:40:50.018Z,73.21
2019-01-21T18:43:19.060Z,73.23
2019-01-21T18:45:46.337Z,73.17
2019-01-21T18:48:13.834Z,73.20
2019-01-21T18:50:41.136Z,73.16
2019-01-21T18:53:08.436Z,73.13
2019-01-21T18:55:36.798Z,73.16
2019-01-21T18:58:04.228Z,73.16
2019-01-21T19:00:31.499Z,73.16
2019-01-21T19:02:58.944Z,73.10
2019-01-21T19:05:26.160Z,73.10
2019-01-21T19:07:53.799Z,73.10
2019-01-21T19:10:20.996Z,73.11
2019-01-21T19:12:49.629Z,73.20
2019-01-21T19:15:19.543Z,73.22
2019-01-21T19:17:46.751Z,73.19
2019-01-21T19:20:14.368Z,73.14
2019-01-21T19:22:41.520Z,73.08
2019-01-21T19:25:08.845Z,73.12
2019-01-21T19:27:36.149Z,73.07
2019-01-21T19:30:04.969Z,73.05
2019-01-21T19:32:32.612Z,73.05
2019-01-21T19:35:00.174Z,73.01
2019-01-21T19:37:27.574Z,73.03
2019-01-21T19:39:54.731Z,73.04
2019-01-21T19:42:21.974Z,72.95
2019-01-21T19:44:49.097Z,73.01
2019-01-21T19:47:16.205Z,73.05
2019-01-21T19:49:43.325Z,73.09
2019-01-21T19:52:10.497Z,73.12
2019-01-21T19:54:37.998Z,73.12
2019-01-21T19:57:05.605Z,73.11
2019-01-21T19:59:32.732Z,73.16
2019-01-21T20:01:59.862Z,73.15
2019-01-21T20:04:26.969Z,73.18
2019-01-21T20:06:54.100Z,73.22
2019-01-21T20:09:21.199Z,73.16
2019-01-21T20:11:48.324Z,73.22
2019-01-21T20:14:15.459Z,73.23
2019-01-21T20:16:42.551Z,73.23
2019-01-21T20:19:09.872Z,73.27
2019-01-21T20:21:38.296Z,73.30
2019-01-21T20:24:05.568Z,73.29
2019-01-21T20:26:32.921Z,73.28
2019-01-21T20:29:00.871Z,73.33
2019-01-21T20:31:28.323Z,73.36
2019-01-21T20:33:56.118Z,73.36
2019-01-21T20:36:23.407Z,73.38
2019-01-21T20:38:50.724Z,73.42
2019-01-21T20:41:18.274Z,73.44
2019-01-21T20:43:45.406Z,73.36
2019-01-21T20:46:12.585Z,73.42
2019-01-21T20:48:39.720Z,73.42
2019-01-21T20:51:06.866Z,73.40
2019-01-21T20:53:33.974Z,73.42
2019-01-21T20:56:01.103Z,73.38
2019-01-21T20:58:28.243Z,73.36
2019-01-21T21:00:56.521Z,73.40
2019-01-21T21:03:26.347Z,73.43
2019-01-21T21:05:53.571Z,73.42
2019-01-21T21:08:20.941Z,73.36
2019-01-21T21:10:56.484Z,73.39
2019-01-21T21:13:23.710Z,73.40
2019-01-21T21:15:54.200Z,73.39
2019-01-21T21:18:21.347Z,73.35
2019-01-21T21:20:53.614Z,73.34
2019-01-21T21:23:22.757Z,73.37
2019-01-21T21:25:52.730Z,73.37
2019-01-21T21:28:19.969Z,73.40
2019-01-21T21:30:47.729Z,73.36
2019-01-21T21:33:17.836Z,73.33
2019-01-21T21:35:45.235Z,73.37
2019-01-21T21:38:12.566Z,73.40
2019-01-21T21:40:40.089Z,73.41
2019-01-21T21:43:07.549Z,73.41
2019-01-21T21:45:36.538Z,73.43
2019-01-21T21:48:06.611Z,73.43
2019-01-21T21:50:35.655Z,73.45
2019-01-21T21:53:03.992Z,73.43
2019-01-21T21:55:31.137Z,73.50
2019-01-21T21:58:00.316Z,73.51
2019-01-21T22:00:28.479Z,73.53
2019-01-21T22:02:56.992Z,73.53
2019-01-21T22:05:25.431Z,73.56
2019-01-21T22:07:54.464Z,73.60
2019-01-21T22:10:23.846Z,73.62
2019-01-21T22:12:51.448Z,73.60
2019-01-21T22:15:19.955Z,73.61
2019-01-21T22:17:49.092Z,73.65
2019-01-21T22:20:19.586Z,73.67
2019-01-21T22:22:48.001Z,73.62
2019-01-21T22:25:15.796Z,73.63
2019-01-21T22:27:44.208Z,73.59
2019-01-21T22:30:16.715Z,73.62
2019-01-21T22:32:43.880Z,73.63
2019-01-21T22:35:11.223Z,73.56
2019-01-21T22:37:38.421Z,73.56
2019-01-21T22:40:07.699Z,73.58
2019-01-21T22:42:35.042Z,73.58
2019-01-21T22:45:04.649Z,73.65
2019-01-21T22:47:31.905Z,73.64
2019-01-21T22:50:01.071Z,73.70
2019-01-21T22:52:28.688Z,73.70
2019-01-21T22:54:56.018Z,73.74
2019-01-21T22:57:24.344Z,73.63
2019-01-21T22:59:51.565Z,73.62
2019-01-21T23:02:18.765Z,73.67
2019-01-21T23:04:47.756Z,73.71
2019-01-21T23:07:15.326Z,73.71
2019-01-21T23:09:42.633Z,73.69
2019-01-21T23:12:09.746Z,73.73
2019-01-21T23:14:36.840Z,73.73
2019-01-21T23:17:06.890Z,73.73
2019-01-21T23:19:35.078Z,73.67
2019-01-21T23:22:02.274Z,73.68
2019-01-21T23:24:29.741Z,73.73
2019-01-21T23:26:56.823Z,73.79
2019-01-21T23:29:23.942Z,73.78
2019-01-21T23:31:52.867Z,73.78
2019-01-21T23:34:20.048Z,73.78
2019-01-21T23:36:47.205Z,73.73
2019-01-21T23:39:14.568Z,73.72
2019-01-21T23:41:43.483Z,73.75
2019-01-21T23:44:10.588Z,73.76
2019-01-21T23:46:37.857Z,73.83
2019-01-21T23:49:04.956Z,73.89
2019-01-21T23:51:32.630Z,73.88
2019-01-21T23:54:00.820Z,73.89
2019-01-21T23:56:27.911Z,73.82
2019-01-21T23:58:56.115Z,73.81
